Time;durP1;ratioP1;P1;durP2;ratioP2;P2;SDS_P1;SDS_P2;PMS_P1;PMS_P2;Temp;Humidity;BMP_temperature;BMP_pressure;BME280_temperature;BME280_humidity;BME280_pressure;Samples;Min_cycle;Max_cycle;Signal;HPM_P1;HPM_P2
2024/01/01 00:00:44;;;;;;;21.15;14.18;;;18.30;70.60;;;;;;4171998;28;20767;-39
2024/01/01 00:03:28;;;;;;;18.60;12.93;;;18.30;71.00;;;;;;4175819;28;20102;-39
2024/01/01 00:06:09;;;;;;;15.50;9.50;;;18.20;71.10;;;;;;4187663;28;20384;-39
2024/01/01 00:08:50;;;;;;;13.57;8.45;;;18.20;71.50;;;;;;4187861;28;20487;-38
2024/01/01 00:11:31;;;;;;;11.77;8.25;;;18.30;71.50;;;;;;4186327;28;20692;-38
2024/01/01 00:14:12;;;;;;;15.23;10.82;;;18.30;71.40;;;;;;4188053;28;20130;-38
2024/01/01 00:16:53;;;;;;;18.50;11.45;;;18.40;71.30;;;;;;4188324;28;20059;-38
2024/01/01 00:19:36;;;;;;;9.77;6.88;;;18.50;71.00;;;;;;4154775;28;20052;-38
2024/01/01 00:22:17;;;;;;;11.02;5.90;;;18.50;70.70;;;;;;4171238;28;20376;-38
2024/01/01 00:24:58;;;;;;;8.30;5.55;;;18.60;71.00;;;;;;4156202;28;20412;-38
2024/01/01 00:27:39;;;;;;;8.15;5.05;;;18.60;70.80;;;;;;4160173;28;20057;-38
2024/01/01 00:30:20;;;;;;;8.07;5.20;;;18.60;70.40;;;;;;4171077;28;20206;-38
2024/01/01 00:33:02;;;;;;;;;;;18.70;70.30;;;;;;4171329;28;20093;-38
2024/01/01 00:35:45;;;;;;;10.20;5.60;;;18.70;70.50;;;;;;4186538;28;19931;-38
2024/01/01 00:38:26;;;;;;;11.73;7.57;;;18.70;70.20;;;;;;4175241;28;20191;-38
2024/01/01 00:41:13;;;;;;;14.00;8.32;;;18.70;70.30;;;;;;4186419;28;20059;-38
2024/01/01 00:43:54;;;;;;;12.10;8.15;;;18.60;70.10;;;;;;4184502;28;20059;-38
2024/01/01 00:46:35;;;;;;;13.65;8.70;;;18.60;70.20;;;;;;4185233;28;20075;-38
2024/01/01 00:49:16;;;;;;;12.95;8.90;;;18.60;70.30;;;;;;4187068;28;20048;-38
2024/01/01 00:51:58;;;;;;;12.67;8.97;;;18.60;70.40;;;;;;4196675;28;20047;-38
2024/01/01 00:54:39;;;;;;;16.98;9.43;;;18.50;70.70;;;;;;4186466;28;20055;-38
2024/01/01 00:57:20;;;;;;;13.95;8.77;;;18.60;70.80;;;;;;4186887;28;20060;-38
2024/01/01 01:00:01;;;;;;;14.32;9.45;;;18.50;70.60;;;;;;4169040;28;20052;-38
2024/01/01 01:02:42;;;;;;;13.90;8.45;;;18.50;70.60;;;;;;4181069;28;20416;-38
2024/01/01 01:05:24;;;;;;;15.50;9.32;;;18.50;70.80;;;;;;4186556;28;20051;-38
2024/01/01 01:08:07;;;;;;;18.65;10.60;;;18.60;70.80;;;;;;4187624;28;20090;-38
2024/01/01 01:10:49;;;;;;;15.80;10.55;;;18.60;70.70;;;;;;4186618;28;20121;-38
2024/01/01 01:13:30;;;;;;;;;;;18.60;70.40;;;;;;4171253;28;20178;-38
2024/01/01 01:16:11;;;;;;;22.77;12.15;;;18.70;70.50;;;;;;4185528;28;19993;-38
2024/01/01 01:18:52;;;;;;;19.73;11.35;;;18.80;70.40;;;;;;4170317;28;20202;-38
2024/01/01 01:21:33;;;;;;;20.02;12.52;;;18.80;70.20;;;;;;4170209;28;20068;-38
2024/01/01 01:24:15;;;;;;;18.08;12.30;;;18.90;69.80;;;;;;4170190;28;20065;-38
2024/01/01 01:26:57;;;;;;;21.85;11.77;;;19.00;69.40;;;;;;4155262;28;20179;-38
2024/01/01 01:29:39;;;;;;;20.33;13.38;;;19.00;69.40;;;;;;4164803;28;20105;-38
2024/01/01 01:32:19;;;;;;;19.90;12.70;;;19.00;69.30;;;;;;4186194;28;20201;-38
2024/01/01 01:35:00;;;;;;;23.17;13.68;;;19.00;69.10;;;;;;4183946;28;20059;-38
2024/01/01 01:37:42;;;;;;;;;;;19.00;69.30;;;;;;4186171;28;20063;-38
2024/01/01 01:40:24;;;;;;;20.92;12.40;;;18.90;69.60;;;;;;4170904;28;19971;-38
2024/01/01 01:43:19;;;;;;;18.75;12.82;;;18.80;69.60;;;;;;4175135;28;20055;-38
2024/01/01 01:46:00;;;;;;;17.83;12.27;;;18.70;69.90;;;;;;4172284;28;20498;-38
2024/01/01 01:48:41;;;;;;;22.00;11.57;;;18.60;70.40;;;;;;4159183;28;20404;-38
2024/01/01 01:51:22;;;;;;;15.25;9.52;;;18.50;70.70;;;;;;4178779;28;20185;-38
2024/01/01 01:54:04;;;;;;;19.50;11.82;;;18.50;70.80;;;;;;4189655;28;20059;-38
2024/01/01 01:56:46;;;;;;;20.77;11.05;;;18.50;70.80;;;;;;4171595;28;20056;-38
2024/01/01 01:59:28;;;;;;;20.13;11.32;;;18.50;71.00;;;;;;4173013;28;20056;-39
2024/01/01 02:02:09;;;;;;;15.60;10.73;;;18.50;71.00;;;;;;4155729;28;20094;-38
2024/01/01 02:04:51;;;;;;;16.80;10.52;;;18.60;70.80;;;;;;4173888;28;20152;-38
2024/01/01 02:07:32;;;;;;;15.60;11.27;;;18.60;70.60;;;;;;4173242;28;20068;-38
2024/01/01 02:10:13;;;;;;;18.80;10.48;;;18.70;70.30;;;;;;4173204;28;20103;-38
2024/01/01 02:12:56;;;;;;;16.20;10.02;;;18.80;70.00;;;;;;4179121;28;20110;-39
2024/01/01 02:15:36;;;;;;;15.45;10.52;;;18.90;69.70;;;;;;4189448;28;20622;-38
2024/01/01 02:18:18;;;;;;;16.85;10.35;;;19.00;69.30;;;;;;4188787;28;20056;-38
2024/01/01 02:20:59;;;;;;;16.02;10.35;;;19.00;69.10;;;;;;4188122;28;20067;-38
2024/01/01 02:23:41;;;;;;;19.17;10.60;;;19.00;69.00;;;;;;4188097;28;20070;-38
2024/01/01 02:26:22;;;;;;;16.45;10.32;;;19.00;68.80;;;;;;4188318;28;20060;-38
2024/01/01 02:29:03;;;;;;;15.38;10.15;;;19.00;68.50;;;;;;4188351;28;20397;-38
2024/01/01 02:31:45;;;;;;;16.65;10.13;;;19.00;68.50;;;;;;4189490;28;20047;-37
2024/01/01 02:34:27;;;;;;;21.02;11.25;;;19.00;68.50;;;;;;4188212;28;20048;-38
2024/01/01 02:37:08;;;;;;;12.60;8.98;;;19.00;68.30;;;;;;4189531;28;20097;-38
2024/01/01 02:39:50;;;;;;;14.32;10.23;;;19.00;68.20;;;;;;4165680;28;20508;-37
2024/01/01 02:42:32;;;;;;;16.50;10.07;;;19.00;68.30;;;;;;4172728;28;20048;-38
2024/01/01 02:45:12;;;;;;;;;;;19.00;69.10;;;;;;4183825;28;20669;-38
2024/01/01 02:47:54;;;;;;;15.10;9.83;;;19.00;68.50;;;;;;4172551;28;19928;-38
2024/01/01 02:50:36;;;;;;;16.75;10.20;;;19.10;68.30;;;;;;4183185;28;20417;-38
2024/01/01 02:53:16;;;;;;;13.50;9.27;;;19.10;68.10;;;;;;4179707;28;20062;-38
2024/01/01 02:55:58;;;;;;;13.73;10.57;;;19.10;67.90;;;;;;4161941;28;20060;-38
2024/01/01 02:58:39;;;;;;;14.57;10.07;;;19.10;67.80;;;;;;4170256;28;20059;-38
2024/01/01 03:01:20;;;;;;;16.30;10.57;;;19.10;68.00;;;;;;4153771;28;20520;-38
2024/01/01 03:04:02;;;;;;;13.77;10.15;;;19.20;68.00;;;;;;4172019;28;20625;-39
2024/01/01 03:06:43;;;;;;;14.45;8.75;;;19.20;67.80;;;;;;4172099;28;20059;-38
2024/01/01 03:09:24;;;;;;;18.02;9.27;;;19.30;67.70;;;;;;4185746;28;20063;-38
2024/01/01 03:12:08;;;;;;;14.85;8.45;;;19.30;67.40;;;;;;4161197;28;20064;-38
2024/01/01 03:14:49;;;;;;;11.13;8.65;;;19.20;67.30;;;;;;4172266;28;20056;-38
2024/01/01 03:17:30;;;;;;;10.85;7.43;;;19.20;67.50;;;;;;4172529;28;20063;-38
2024/01/01 03:20:12;;;;;;;11.32;7.50;;;19.20;67.50;;;;;;4181828;28;20060;-38
2024/01/01 03:22:53;;;;;;;10.32;6.03;;;19.20;67.70;;;;;;4187046;28;20047;-38
2024/01/01 03:25:33;;;;;;;9.32;5.47;;;19.20;67.80;;;;;;4171720;28;20191;-38
2024/01/01 03:28:16;;;;;;;7.38;4.72;;;19.20;67.60;;;;;;4178582;28;20060;-38
2024/01/01 03:30:57;;;;;;;5.22;4.38;;;19.20;67.30;;;;;;4188999;28;20051;-38
2024/01/01 03:33:38;;;;;;;5.15;4.50;;;19.10;67.30;;;;;;4188405;28;20059;-37
2024/01/01 03:36:19;;;;;;;6.43;4.35;;;19.10;67.80;;;;;;4174200;28;20075;-38
2024/01/01 03:39:00;;;;;;;8.25;4.60;;;19.00;68.30;;;;;;4171924;28;20071;-38
2024/01/01 03:41:41;;;;;;;7.60;4.70;;;18.90;68.70;;;;;;4187633;28;20602;-38
2024/01/01 03:44:23;;;;;;;5.97;4.70;;;18.80;69.20;;;;;;4168773;28;20076;-37
2024/01/01 03:47:04;;;;;;;8.15;5.18;;;18.90;70.20;;;;;;4187137;28;20052;-38
2024/01/01 03:49:45;;;;;;;10.48;5.28;;;19.00;69.30;;;;;;4172394;28;20164;-38
2024/01/01 03:52:26;;;;;;;7.53;4.47;;;19.00;68.90;;;;;;4170895;28;20483;-37
2024/01/01 03:55:08;;;;;;;9.30;5.45;;;19.10;68.70;;;;;;4170907;28;20052;-38
2024/01/01 03:57:49;;;;;;;;;;;19.10;68.50;;;;;;4170804;28;20055;-36
2024/01/01 04:00:31;;;;;;;8.27;4.88;;;19.20;68.40;;;;;;4162710;28;19929;-38
2024/01/01 04:03:12;;;;;;;9.23;5.15;;;19.20;68.20;;;;;;4186328;28;20078;-38
2024/01/01 04:05:53;;;;;;;7.10;3.92;;;19.20;68.10;;;;;;4187078;28;20059;-38
2024/01/01 04:08:35;;;;;;;8.73;4.60;;;19.20;68.00;;;;;;4187546;28;20410;-38
2024/01/01 04:11:17;;;;;;;7.43;4.15;;;19.20;67.90;;;;;;4178788;28;20056;-38
2024/01/01 04:13:58;;;;;;;;;;;19.10;67.80;;;;;;4169458;28;20048;-38
2024/01/01 04:16:40;;;;;;;7.63;4.20;;;19.10;68.10;;;;;;4182893;28;19973;-38
2024/01/01 04:19:22;;;;;;;6.03;3.67;;;19.00;68.50;;;;;;4171118;28;20052;-39
2024/01/01 04:22:03;;;;;;;;;;;18.90;68.70;;;;;;4187006;28;20082;-36
2024/01/01 04:24:44;;;;;;;3.30;2.97;;;19.00;69.00;;;;;;4187982;28;19966;-38
2024/01/01 04:27:25;;;;;;;6.35;2.50;;;19.10;67.90;;;;;;4187218;28;20059;-38
2024/01/01 04:30:07;;;;;;;4.53;2.58;;;19.10;68.20;;;;;;4186141;28;20058;-38
2024/01/01 04:32:49;;;;;;;5.18;2.90;;;19.10;68.10;;;;;;4186383;28;20058;-36
2024/01/01 04:35:32;;;;;;;4.05;2.30;;;19.10;68.10;;;;;;4184150;28;20121;-38
2024/01/01 04:38:13;;;;;;;4.15;2.58;;;19.20;68.10;;;;;;4184719;28;20185;-38
2024/01/01 04:40:54;;;;;;;3.47;2.30;;;19.30;68.00;;;;;;4171452;28;20690;-38
2024/01/01 04:43:35;;;;;;;4.07;2.00;;;19.30;67.80;;;;;;4187501;28;20059;-39
2024/01/01 04:46:16;;;;;;;5.65;2.28;;;19.30;67.80;;;;;;4187650;28;20632;-38
2024/01/01 04:48:58;;;;;;;5.68;2.28;;;19.30;67.90;;;;;;4161593;28;20056;-38
2024/01/01 04:51:39;;;;;;;4.30;1.90;;;19.30;68.70;;;;;;4167310;28;20052;-39
2024/01/01 04:54:20;;;;;;;5.45;1.85;;;19.20;68.00;;;;;;4187133;28;20618;-38
2024/01/01 04:57:01;;;;;;;3.35;2.15;;;19.20;68.20;;;;;;4187451;28;20055;-38
2024/01/01 04:59:42;;;;;;;2.85;1.67;;;19.20;68.30;;;;;;4187320;28;20055;-38
2024/01/01 05:02:24;;;;;;;4.07;2.08;;;19.20;68.10;;;;;;4185932;28;20056;-38
2024/01/01 05:05:08;;;;;;;2.65;1.65;;;19.20;68.00;;;;;;4187475;28;20059;-38
2024/01/01 05:07:50;;;;;;;2.22;1.95;;;19.20;68.00;;;;;;4185274;28;20085;-38
2024/01/01 05:10:32;;;;;;;4.68;2.38;;;19.20;68.10;;;;;;4170085;28;20183;-38
2024/01/01 05:13:14;;;;;;;3.22;2.30;;;19.20;68.00;;;;;;4183007;28;20093;-39
2024/01/01 05:15:55;;;;;;;2.80;2.10;;;19.30;67.80;;;;;;4185444;28;20518;-39
2024/01/01 05:18:36;;;;;;;5.78;1.98;;;19.30;67.70;;;;;;4187157;28;20367;-38
2024/01/01 05:21:18;;;;;;;2.25;1.85;;;19.20;67.70;;;;;;4187263;28;20051;-38
2024/01/01 05:23:59;;;;;;;3.78;2.95;;;19.20;67.90;;;;;;4186196;28;20144;-38
2024/01/01 05:26:40;;;;;;;5.20;1.88;;;19.20;68.10;;;;;;4173205;28;20125;-38
2024/01/01 05:29:21;;;;;;;5.45;2.17;;;19.20;68.00;;;;;;4170780;28;20114;-38
2024/01/01 05:32:03;;;;;;;3.13;1.98;;;19.20;68.00;;;;;;4187075;28;20051;-38
2024/01/01 05:34:44;;;;;;;4.60;2.17;;;19.20;68.10;;;;;;4186996;28;20055;-38
2024/01/01 05:37:26;;;;;;;2.20;1.80;;;19.10;68.20;;;;;;4170385;28;20634;-38
2024/01/01 05:40:08;;;;;;;4.50;2.08;;;19.10;68.40;;;;;;4175550;28;20060;-38
2024/01/01 05:42:49;;;;;;;3.90;1.50;;;19.20;68.40;;;;;;4186934;28;20101;-38
2024/01/01 05:45:30;;;;;;;2.83;1.55;;;19.30;69.00;;;;;;4186115;28;20085;-38
2024/01/01 05:48:11;;;;;;;2.72;1.90;;;19.30;67.80;;;;;;4171809;28;20099;-36
2024/01/01 05:50:58;;;;;;;4.85;2.03;;;19.30;67.80;;;;;;4175277;28;20087;-38
2024/01/01 05:53:41;;;;;;;2.63;1.50;;;19.30;67.70;;;;;;4186816;28;20051;-38
2024/01/01 05:56:22;;;;;;;1.85;1.55;;;19.30;67.70;;;;;;4179559;28;20060;-38
2024/01/01 05:59:03;;;;;;;3.85;1.40;;;19.30;67.80;;;;;;4181474;28;20064;-38
2024/01/01 06:01:44;;;;;;;2.65;1.60;;;19.30;68.00;;;;;;4186248;28;20065;-38
2024/01/01 06:04:26;;;;;;;3.30;1.52;;;19.30;68.00;;;;;;4176552;28;20400;-38
2024/01/01 06:07:07;;;;;;;3.28;1.35;;;19.30;68.00;;;;;;4186551;28;20221;-38
2024/01/01 06:09:49;;;;;;;4.03;1.80;;;19.30;68.00;;;;;;4186630;28;20392;-38
2024/01/01 06:12:30;;;;;;;4.15;1.48;;;19.20;68.00;;;;;;4186587;28;20051;-38
2024/01/01 06:15:12;;;;;;;3.70;1.60;;;19.10;68.30;;;;;;4186151;28;20080;-38
2024/01/01 06:17:53;;;;;;;4.35;1.65;;;19.00;68.40;;;;;;4168143;28;20449;-38
2024/01/01 06:20:34;;;;;;;4.53;1.50;;;18.90;68.70;;;;;;4169350;28;20048;-38
2024/01/01 06:23:17;;;;;;;4.78;1.65;;;18.80;69.00;;;;;;4167367;28;20404;-39
2024/01/01 06:26:00;;;;;;;4.15;1.83;;;18.80;69.60;;;;;;4169776;28;20405;-38
2024/01/01 06:28:41;;;;;;;2.90;1.65;;;18.90;69.60;;;;;;4170882;28;20056;-38
2024/01/01 06:31:22;;;;;;;5.15;1.40;;;18.90;70.30;;;;;;4170554;28;20540;-38
2024/01/01 06:34:03;;;;;;;3.30;1.73;;;19.00;69.30;;;;;;4186732;28;20047;-38
2024/01/01 06:36:44;;;;;;;3.90;1.75;;;19.00;69.10;;;;;;4170105;28;20079;-38
2024/01/01 06:39:25;;;;;;;5.15;1.65;;;19.00;68.70;;;;;;4171831;28;20499;-38
2024/01/01 06:42:07;;;;;;;2.75;1.38;;;19.10;68.80;;;;;;4158600;28;20051;-38
2024/01/01 06:44:48;;;;;;;2.88;1.17;;;19.10;69.20;;;;;;4171608;28;20051;-38
2024/01/01 06:47:29;;;;;;;4.03;1.02;;;19.10;69.00;;;;;;4168880;28;20586;-38
2024/01/01 06:50:10;;;;;;;2.72;1.25;;;19.20;68.90;;;;;;4173583;28;20080;-38
2024/01/01 06:52:51;;;;;;;3.42;2.28;;;19.20;68.40;;;;;;4187739;28;20059;-38
2024/01/01 06:55:33;;;;;;;3.47;1.63;;;19.20;68.20;;;;;;4189246;28;20114;-38
2024/01/01 06:58:15;;;;;;;;;;;19.20;68.10;;;;;;4189265;28;20047;-38
2024/01/01 07:00:56;;;;;;;6.45;1.65;;;19.10;68.30;;;;;;4185416;28;20282;-36
2024/01/01 07:03:38;;;;;;;5.88;2.10;;;19.00;69.40;;;;;;4172180;28;20093;-35
2024/01/01 07:06:19;;;;;;;4.32;1.52;;;18.90;68.80;;;;;;4171050;28;20047;-37
2024/01/01 07:09:00;;;;;;;3.58;1.77;;;18.80;69.20;;;;;;4177040;28;20051;-37
2024/01/01 07:11:41;;;;;;;6.22;1.90;;;18.70;69.50;;;;;;4189565;28;20053;-37
2024/01/01 07:14:24;;;;;;;2.03;1.45;;;18.60;69.90;;;;;;4188549;28;20066;-35
2024/01/01 07:17:05;;;;;;;4.30;1.65;;;18.50;70.40;;;;;;4184693;28;20166;-37
2024/01/01 07:19:46;;;;;;;3.78;1.30;;;18.40;70.70;;;;;;4187320;28;20052;-37
2024/01/01 07:22:27;;;;;;;3.58;1.60;;;18.30;71.00;;;;;;4187672;28;20050;-37
2024/01/01 07:25:09;;;;;;;3.17;1.45;;;18.20;71.30;;;;;;4186869;28;20055;-38
2024/01/01 07:27:50;;;;;;;2.88;1.10;;;18.10;71.70;;;;;;4169006;28;20183;-37
2024/01/01 07:30:33;;;;;;;2.70;1.40;;;18.00;72.00;;;;;;4187266;28;20059;-38
2024/01/01 07:33:14;;;;;;;2.55;1.45;;;17.90;72.30;;;;;;4188619;28;20129;-38
2024/01/01 07:35:55;;;;;;;2.50;1.08;;;17.80;72.60;;;;;;4171078;28;20178;-36
2024/01/01 07:38:36;;;;;;;4.03;1.17;;;17.70;73.20;;;;;;4187406;28;20067;-37
2024/01/01 07:41:17;;;;;;;4.45;1.70;;;17.60;73.20;;;;;;4173366;28;20060;-37
2024/01/01 07:43:58;;;;;;;5.85;1.40;;;17.50;72.30;;;;;;4185526;28;20048;-37
2024/01/01 07:46:43;;;;;;;5.68;2.08;;;17.40;72.70;;;;;;4184709;28;20075;-37
2024/01/01 07:49:24;;;;;;;4.57;1.48;;;17.40;73.30;;;;;;4178497;28;20063;-37
2024/01/01 07:52:05;;;;;;;5.70;1.90;;;17.30;73.70;;;;;;4174070;28;20487;-38
2024/01/01 07:54:47;;;;;;;4.28;1.90;;;17.20;73.70;;;;;;4182911;28;20388;-35
2024/01/01 07:57:28;;;;;;;4.53;1.33;;;17.10;73.90;;;;;;4170990;28;20055;-37
2024/01/01 08:00:11;;;;;;;1.88;1.10;;;17.10;74.20;;;;;;4168344;28;20491;-37
2024/01/01 08:02:54;;;;;;;1.70;0.90;;;17.00;74.10;;;;;;4171104;28;20064;-37
2024/01/01 08:05:35;;;;;;;1.10;0.40;;;16.90;74.10;;;;;;4172164;28;20094;-38
2024/01/01 08:08:16;;;;;;;;;;;16.90;74.50;;;;;;4183428;28;20055;-37
2024/01/01 08:10:57;;;;;;;0.88;0.50;;;16.80;75.00;;;;;;4179694;28;20054;-37
2024/01/01 08:13:38;;;;;;;0.40;0.40;;;16.70;75.70;;;;;;4171041;28;20577;-37
2024/01/01 08:16:20;;;;;;;0.73;0.50;;;16.70;75.80;;;;;;4173291;28;20060;-38
2024/01/01 08:19:02;;;;;;;1.38;0.85;;;16.60;75.70;;;;;;4173231;28;20097;-37
2024/01/01 08:21:42;;;;;;;1.40;0.52;;;16.60;75.90;;;;;;4183414;28;20799;-37
2024/01/01 08:24:23;;;;;;;0.45;0.30;;;16.60;76.00;;;;;;4178263;28;20380;-37
2024/01/01 08:27:06;;;;;;;2.25;1.70;;;16.50;75.30;;;;;;4182963;28;20055;-37
2024/01/01 08:29:47;;;;;;;0.90;0.50;;;16.50;75.40;;;;;;4166460;28;20051;-37
2024/01/01 08:32:29;;;;;;;1.95;0.75;;;16.50;75.30;;;;;;4170790;28;20139;-38
2024/01/01 08:35:11;;;;;;;0.50;0.50;;;16.40;74.80;;;;;;4170349;28;20451;-37
2024/01/01 08:37:54;;;;;;;1.80;0.60;;;16.40;76.10;;;;;;4170733;28;20087;-38
2024/01/01 08:40:36;;;;;;;2.90;0.85;;;16.40;75.30;;;;;;4167288;28;20098;-37
2024/01/01 08:43:17;;;;;;;2.03;1.00;;;16.40;75.10;;;;;;4160338;28;20060;-38
2024/01/01 08:46:00;;;;;;;1.75;0.75;;;16.40;75.40;;;;;;4167798;28;20149;-38
2024/01/01 08:48:42;;;;;;;2.05;1.15;;;16.40;75.60;;;;;;4156386;28;20056;-37
2024/01/01 08:51:24;;;;;;;2.20;0.90;;;16.40;75.80;;;;;;4168687;28;20096;-37
2024/01/01 08:54:07;;;;;;;0.85;0.80;;;16.40;75.40;;;;;;4170116;28;20052;-36
2024/01/01 08:56:47;;;;;;;2.17;0.80;;;16.40;75.10;;;;;;4169684;28;20507;-38
2024/01/01 08:59:29;;;;;;;2.03;0.68;;;16.40;74.60;;;;;;4167124;28;20137;-37
2024/01/01 09:02:10;;;;;;;4.57;0.70;;;16.40;75.10;;;;;;4179694;28;20515;-38
2024/01/01 09:04:51;;;;;;;1.55;0.52;;;16.40;75.60;;;;;;4170583;28;20515;-37
2024/01/01 09:07:33;;;;;;;4.50;1.00;;;16.40;75.40;;;;;;4168448;28;20059;-37
2024/01/01 09:10:16;;;;;;;0.88;0.60;;;16.40;75.40;;;;;;4166209;28;20064;-37
2024/01/01 09:12:57;;;;;;;3.08;0.60;;;16.30;75.60;;;;;;4164649;28;20094;-38
2024/01/01 09:15:38;;;;;;;1.50;0.60;;;16.30;75.60;;;;;;4167545;28;20063;-38
2024/01/01 09:18:20;;;;;;;2.25;0.82;;;16.30;75.60;;;;;;4166477;28;20068;-37
2024/01/01 09:21:01;;;;;;;1.90;0.90;;;16.20;75.80;;;;;;4177492;28;20055;-37
2024/01/01 09:23:44;;;;;;;2.33;0.90;;;16.20;75.90;;;;;;4173126;28;20060;-38
2024/01/01 09:26:25;;;;;;;1.00;0.75;;;16.20;76.40;;;;;;4180199;28;20133;-38
2024/01/01 09:29:06;;;;;;;2.95;0.80;;;16.20;76.90;;;;;;4171442;28;20380;-38
2024/01/01 09:31:47;;;;;;;2.25;0.65;;;16.10;77.10;;;;;;4173010;28;20495;-38
2024/01/01 09:34:29;;;;;;;;;;;16.10;77.60;;;;;;4173915;28;20534;-37
2024/01/01 09:37:10;;;;;;;2.78;0.80;;;16.10;77.50;;;;;;4175661;28;19935;-38
2024/01/01 09:39:52;;;;;;;1.48;0.38;;;16.10;78.00;;;;;;4168300;28;20056;-39
2024/01/01 09:42:33;;;;;;;1.08;0.40;;;16.10;77.70;;;;;;4168895;28;20077;-39
2024/01/01 09:45:15;;;;;;;0.70;0.43;;;16.10;77.60;;;;;;4166604;28;20060;-39
2024/01/01 09:47:55;;;;;;;1.38;0.32;;;16.10;77.10;;;;;;4175394;28;20056;-39
2024/01/01 09:50:37;;;;;;;1.38;0.57;;;16.10;77.70;;;;;;4181880;28;20125;-39
2024/01/01 09:53:18;;;;;;;0.52;0.30;;;16.10;78.50;;;;;;4171778;28;20079;-39
2024/01/01 09:56:00;;;;;;;1.02;0.30;;;16.10;78.40;;;;;;4177261;28;20503;-39
2024/01/01 09:58:42;;;;;;;1.27;0.50;;;16.10;77.20;;;;;;4166872;28;20090;-39
2024/01/01 10:01:24;;;;;;;1.70;0.40;;;16.10;76.90;;;;;;4173439;28;20190;-39
2024/01/01 10:04:07;;;;;;;3.03;0.60;;;16.10;76.50;;;;;;4184388;28;20063;-39
2024/01/01 10:06:55;;;;;;;0.35;0.30;;;16.10;76.60;;;;;;4187087;28;20186;-38
2024/01/01 10:09:48;;;;;;;1.05;0.50;;;16.10;76.60;;;;;;4187118;28;20059;-38
2024/01/01 10:12:32;;;;;;;0.73;0.60;;;16.10;77.90;;;;;;4180497;28;20716;-38
2024/01/01 10:15:13;;;;;;;1.45;0.50;;;16.10;77.30;;;;;;4179334;28;20062;-38
2024/01/01 10:18:08;;;;;;;1.67;0.60;;;16.00;77.00;;;;;;4185491;28;20437;-38
2024/01/01 10:20:51;;;;;;;0.77;0.60;;;16.00;77.40;;;;;;4171961;28;20056;-38
2024/01/01 10:23:32;;;;;;;0.60;0.60;;;15.90;77.60;;;;;;4175538;28;20507;-38
2024/01/01 10:26:14;;;;;;;0.63;0.60;;;15.90;77.50;;;;;;4168612;28;20113;-38
2024/01/01 10:28:57;;;;;;;3.00;1.58;;;15.90;77.70;;;;;;4182558;28;20129;-38
2024/01/01 10:31:40;;;;;;;1.40;0.68;;;15.90;77.90;;;;;;4173209;28;20488;-38
2024/01/01 10:34:22;;;;;;;0.77;0.50;;;15.80;78.30;;;;;;4176807;28;20094;-38
2024/01/01 10:37:04;;;;;;;2.22;0.75;;;15.80;78.20;;;;;;4169912;28;20056;-38
2024/01/01 10:39:46;;;;;;;1.88;1.13;;;15.80;78.30;;;;;;4177284;28;20060;-38
2024/01/01 10:42:31;;;;;;;2.35;1.00;;;15.80;78.10;;;;;;4184656;28;20064;-38
2024/01/01 10:45:13;;;;;;;2.75;1.02;;;15.80;78.20;;;;;;4183751;28;20116;-38
2024/01/01 10:47:57;;;;;;;0.93;0.73;;;15.80;78.50;;;;;;4170031;28;20702;-38
2024/01/01 10:50:44;;;;;;;5.25;1.20;;;15.70;78.30;;;;;;4169471;28;20094;-38
2024/01/01 10:53:33;;;;;;;4.15;1.77;;;15.70;78.20;;;;;;4170404;28;20106;-38
2024/01/01 10:56:27;;;;;;;3.00;1.35;;;15.70;78.40;;;;;;4169471;28;20064;-38
2024/01/01 10:59:16;;;;;;;3.15;1.02;;;15.70;78.30;;;;;;4176328;28;20059;-38
2024/01/01 11:02:00;;;;;;;7.10;1.33;;;15.60;78.20;;;;;;4172780;28;20103;-38
2024/01/01 11:04:41;;;;;;;6.85;1.80;;;15.60;78.40;;;;;;4186210;28;20055;-38
2024/01/01 11:07:55;;;;;;;6.25;1.45;;;15.60;78.40;;;;;;4181745;28;20151;-38
2024/01/01 11:10:37;;;;;;;5.63;1.38;;;15.60;78.30;;;;;;4176041;28;20093;-38
2024/01/01 11:13:53;;;;;;;6.18;1.35;;;15.60;78.80;;;;;;4174038;28;20129;-38
2024/01/01 11:16:50;;;;;;;6.22;1.45;;;15.50;78.50;;;;;;4185147;28;20138;-38
2024/01/01 11:19:42;;;;;;;9.90;1.83;;;15.50;78.30;;;;;;4171060;28;20059;-37
2024/01/01 11:22:31;;;;;;;7.40;1.50;;;15.50;78.60;;;;;;4168897;28;20202;-37
2024/01/01 11:25:29;;;;;;;5.22;1.20;;;15.50;78.40;;;;;;4180188;28;20051;-38
2024/01/01 11:28:39;;;;;;;5.07;1.20;;;15.40;78.40;;;;;;4175981;28;20122;-38
2024/01/01 11:31:20;;;;;;;5.68;1.20;;;15.40;78.60;;;;;;4184728;28;20064;-38
2024/01/01 11:34:06;;;;;;;4.47;1.30;;;15.40;78.80;;;;;;4169598;28;20140;-38
2024/01/01 11:36:54;;;;;;;6.97;0.90;;;15.40;79.00;;;;;;4181949;28;23669;-36
2024/01/01 11:39:35;;;;;;;5.03;1.05;;;15.30;78.70;;;;;;4185132;28;20132;-36
2024/01/01 11:42:19;;;;;;;4.10;1.02;;;15.40;78.40;;;;;;4172779;28;20051;-36
2024/01/01 11:45:08;;;;;;;4.20;1.02;;;15.30;78.10;;;;;;4167784;28;20048;-37
2024/01/01 11:47:49;;;;;;;2.35;0.98;;;15.30;78.10;;;;;;4180971;28;20051;-37
2024/01/01 11:50:31;;;;;;;5.15;1.27;;;15.30;78.10;;;;;;4180643;28;20079;-37
2024/01/01 11:53:15;;;;;;;6.10;1.40;;;15.30;78.20;;;;;;4169999;28;20059;-37
2024/01/01 11:56:06;;;;;;;3.10;1.10;;;15.30;78.30;;;;;;4177587;28;20507;-36
2024/01/01 11:58:47;;;;;;;;;;;15.30;78.30;;;;;;4168866;28;20064;-36
2024/01/01 12:01:29;;;;;;;3.42;1.15;;;15.30;78.60;;;;;;4182642;28;20295;-48
2024/01/01 12:04:11;;;;;;;8.43;1.50;;;15.30;78.90;;;;;;4173859;28;20051;-45
2024/01/01 12:06:52;;;;;;;6.15;1.02;;;15.20;78.80;;;;;;4170025;28;20643;-46
2024/01/01 12:09:35;;;;;;;2.88;0.77;;;15.20;78.80;;;;;;4179477;28;20420;-46
2024/01/01 12:12:16;;;;;;;3.55;1.15;;;15.20;78.70;;;;;;4169251;28;20063;-45
2024/01/01 12:15:11;;;;;;;2.38;0.90;;;15.20;78.60;;;;;;4181244;28;20048;-45
2024/01/01 12:17:52;;;;;;;4.97;1.30;;;15.20;78.60;;;;;;4194570;28;20099;-45
2024/01/01 12:20:35;;;;;;;4.15;1.20;;;15.20;79.00;;;;;;4173847;28;20097;-45
2024/01/01 12:23:21;;;;;;;2.78;1.10;;;15.10;79.00;;;;;;4182221;28;20058;-45
2024/01/01 12:26:05;;;;;;;5.57;1.27;;;15.20;79.10;;;;;;4173636;28;20097;-46
2024/01/01 12:28:46;;;;;;;6.05;1.67;;;15.20;79.00;;;;;;4181004;28;20148;-47
2024/01/01 12:31:27;;;;;;;5.53;1.20;;;15.20;79.00;;;;;;4169311;28;20068;-46
2024/01/01 12:34:09;;;;;;;8.82;1.75;;;15.20;79.10;;;;;;4183329;28;20446;-45
2024/01/01 12:36:50;;;;;;;5.88;1.75;;;15.10;79.10;;;;;;4167793;28;20464;-45
2024/01/01 12:39:31;;;;;;;4.43;1.20;;;15.10;79.30;;;;;;4176040;28;20117;-45
2024/01/01 12:42:13;;;;;;;5.47;1.65;;;15.20;79.40;;;;;;4183071;28;20423;-45
2024/01/01 12:44:56;;;;;;;7.85;1.65;;;15.20;79.40;;;;;;4169529;28;20423;-45
2024/01/01 12:47:37;;;;;;;5.38;1.65;;;15.20;79.50;;;;;;4173767;28;20403;-46
2024/01/01 12:50:19;;;;;;;6.80;1.35;;;15.20;79.80;;;;;;4181080;28;20093;-45
2024/01/01 12:53:00;;;;;;;8.57;1.48;;;15.10;79.90;;;;;;4167991;28;20052;-46
2024/01/01 12:55:42;;;;;;;9.13;1.48;;;15.10;79.80;;;;;;4171670;28;20064;-46
2024/01/01 12:58:24;;;;;;;3.88;1.25;;;15.10;79.80;;;;;;4169120;28;20067;-45
2024/01/01 13:01:06;;;;;;;9.82;2.28;;;15.20;79.90;;;;;;4171604;28;20300;-46
2024/01/01 13:03:47;;;;;;;6.65;1.30;;;15.20;80.20;;;;;;4181171;28;20067;-45
2024/01/01 13:06:28;;;;;;;9.05;2.00;;;15.20;80.20;;;;;;4182601;28;20059;-45
2024/01/01 13:09:10;;;;;;;7.38;1.35;;;15.20;80.10;;;;;;4183791;28;20055;-44
2024/01/01 13:11:52;;;;;;;3.50;1.25;;;15.20;80.30;;;;;;4169724;28;20586;-45
2024/01/01 13:14:35;;;;;;;6.50;1.65;;;15.10;80.40;;;;;;4173959;28;20183;-46
2024/01/01 13:17:16;;;;;;;4.70;1.40;;;15.20;80.10;;;;;;4188334;28;20106;-46
2024/01/01 13:19:58;;;;;;;5.47;1.70;;;15.20;80.30;;;;;;4182512;28;20262;-45
2024/01/01 13:22:39;;;;;;;3.70;1.13;;;15.20;80.40;;;;;;4182326;28;20063;-45
2024/01/01 13:25:22;;;;;;;6.47;1.23;;;15.10;80.30;;;;;;4179554;28;20205;-46
2024/01/01 13:28:04;;;;;;;3.40;1.10;;;15.10;80.40;;;;;;4181423;28;20098;-48
2024/01/01 13:30:46;;;;;;;3.40;1.63;;;15.10;80.80;;;;;;4178914;28;20083;-46
2024/01/01 13:33:28;;;;;;;6.65;1.30;;;15.10;80.60;;;;;;4171821;28;20114;-46
2024/01/01 13:36:09;;;;;;;8.07;1.30;;;15.10;80.70;;;;;;4169597;28;20059;-45
2024/01/01 13:38:50;;;;;;;11.18;2.10;;;15.10;79.50;;;;;;4173831;28;20056;-45
2024/01/01 13:41:31;;;;;;;9.25;1.58;;;15.10;80.40;;;;;;4171915;28;20060;-36
2024/01/01 13:44:12;;;;;;;5.80;1.27;;;15.10;80.50;;;;;;4171103;28;20055;-36
2024/01/01 13:46:55;;;;;;;8.32;2.30;;;15.10;80.90;;;;;;4178946;28;20052;-36
2024/01/01 13:49:37;;;;;;;5.25;1.50;;;15.10;81.20;;;;;;4186214;28;20525;-36
2024/01/01 13:52:18;;;;;;;6.22;1.40;;;15.10;81.20;;;;;;4171060;28;20503;-37
2024/01/01 13:54:59;;;;;;;3.72;1.42;;;15.10;81.30;;;;;;4180503;28;20071;-36
2024/01/01 13:57:40;;;;;;;3.97;1.35;;;15.10;81.20;;;;;;4175915;28;20094;-36
2024/01/01 14:00:24;;;;;;;8.35;1.73;;;15.10;81.20;;;;;;4184581;28;20141;-37
2024/01/01 14:03:07;;;;;;;8.95;2.85;;;15.10;81.00;;;;;;4170561;28;20147;-36